createdAt,value
2017-12-11T00:00:18.972Z,19.47
2017-12-11T00:02:44.749Z,19.41
2017-12-11T00:05:10.579Z,19.42
2017-12-11T00:07:36.388Z,19.47
2017-12-11T00:10:02.168Z,19.48
2017-12-11T00:12:27.975Z,19.50
2017-12-11T00:14:53.756Z,19.43
2017-12-11T00:17:19.695Z,19.39
2017-12-11T00:19:45.482Z,19.43
2017-12-11T00:22:11.257Z,19.27
2017-12-11T00:24:37.032Z,19.21
2017-12-11T00:27:02.810Z,19.36
2017-12-11T00:29:28.671Z,19.20
2017-12-11T00:31:54.453Z,19.28
2017-12-11T00:34:20.231Z,19.26
2017-12-11T00:36:46.007Z,19.36
2017-12-11T00:39:11.782Z,19.32
2017-12-11T00:41:37.671Z,19.18
2017-12-11T00:44:03.457Z,19.20
2017-12-11T00:46:29.247Z,19.19
2017-12-11T00:48:55.036Z,19.22
2017-12-11T00:51:20.808Z,19.31
2017-12-11T00:53:46.771Z,19.43
2017-12-11T00:56:12.549Z,19.42
2017-12-11T00:58:38.323Z,19.34
2017-12-11T01:01:04.103Z,19.24
2017-12-11T01:03:29.916Z,19.25
2017-12-11T01:05:55.771Z,19.25
2017-12-11T01:08:21.583Z,19.33
2017-12-11T01:10:47.363Z,19.47
2017-12-11T01:13:13.175Z,19.35
2017-12-11T01:15:38.956Z,19.32
2017-12-11T01:18:04.795Z,19.27
2017-12-11T01:20:30.708Z,19.36
2017-12-11T01:22:56.522Z,19.27
2017-12-11T01:25:22.300Z,19.21
2017-12-11T01:27:48.103Z,19.45
2017-12-11T01:30:13.924Z,19.41
2017-12-11T01:32:39.708Z,19.32
2017-12-11T01:35:05.488Z,19.32
2017-12-11T01:37:31.292Z,19.32
2017-12-11T01:39:57.103Z,19.25
2017-12-11T01:42:23.075Z,19.32
2017-12-11T01:44:48.898Z,19.44
2017-12-11T01:47:14.702Z,19.42
2017-12-11T01:49:40.480Z,19.35
2017-12-11T01:52:06.256Z,19.28
2017-12-11T01:54:32.025Z,19.39
2017-12-11T01:56:58.097Z,19.30
2017-12-11T01:59:23.908Z,19.37
2017-12-11T02:01:49.799Z,19.49
2017-12-11T02:04:15.588Z,19.34
2017-12-11T02:06:41.375Z,19.36
2017-12-11T02:09:07.287Z,19.29
2017-12-11T02:11:33.099Z,19.31
2017-12-11T02:13:58.936Z,19.42
2017-12-11T02:16:24.730Z,19.55
2017-12-11T02:18:50.544Z,19.54
2017-12-11T02:21:16.363Z,19.33
2017-12-11T02:23:42.191Z,19.40
2017-12-11T02:26:08.003Z,19.47
2017-12-11T02:28:33.820Z,19.45
2017-12-11T02:30:59.633Z,19.48
2017-12-11T02:33:25.508Z,19.40
2017-12-11T02:35:51.283Z,19.49
2017-12-11T02:38:17.103Z,19.58
2017-12-11T02:40:42.884Z,19.54
2017-12-11T02:43:08.668Z,19.60
2017-12-11T02:45:34.467Z,19.59
2017-12-11T02:48:00.449Z,19.63
2017-12-11T02:50:26.225Z,19.56
2017-12-11T02:52:52.044Z,19.50
2017-12-11T02:55:17.826Z,19.56
2017-12-11T02:57:43.606Z,19.66
2017-12-11T03:00:09.388Z,19.68
2017-12-11T03:02:35.196Z,19.57
2017-12-11T03:05:00.968Z,19.67
2017-12-11T03:07:26.752Z,19.62
2017-12-11T03:09:52.680Z,19.61
2017-12-11T03:12:18.455Z,19.57
2017-12-11T03:14:44.220Z,19.54
2017-12-11T03:17:10.000Z,19.53
2017-12-11T03:19:35.782Z,19.51
2017-12-11T03:22:01.774Z,19.52
2017-12-11T03:24:27.556Z,19.60
2017-12-11T03:26:53.348Z,19.47
2017-12-11T03:29:19.161Z,19.45
2017-12-11T03:31:44.953Z,19.45
2017-12-11T03:34:10.731Z,19.55
2017-12-11T03:36:36.552Z,19.51
2017-12-11T03:39:02.340Z,19.60
2017-12-11T03:41:28.116Z,19.49
2017-12-11T03:43:53.894Z,19.41
2017-12-11T03:46:19.671Z,19.44
2017-12-11T03:48:45.472Z,19.48
2017-12-11T03:51:11.256Z,19.45
2017-12-11T03:53:37.028Z,19.42
2017-12-11T03:56:02.948Z,19.60
2017-12-11T03:58:28.732Z,19.57
2017-12-11T04:00:54.506Z,19.35
2017-12-11T04:03:20.293Z,19.44
2017-12-11T04:05:46.103Z,19.36
2017-12-11T04:08:12.063Z,19.47
2017-12-11T04:10:37.843Z,19.45
2017-12-11T04:13:03.627Z,19.54
2017-12-11T04:15:29.399Z,19.46
2017-12-11T04:17:55.340Z,19.40
2017-12-11T04:20:21.146Z,19.35
2017-12-11T04:22:46.924Z,19.40
2017-12-11T04:25:12.732Z,19.43
2017-12-11T04:27:38.507Z,19.47
2017-12-11T04:30:04.359Z,19.52
2017-12-11T04:32:30.177Z,19.45
2017-12-11T04:34:55.972Z,19.46
2017-12-11T04:37:21.787Z,19.57
2017-12-11T04:39:47.563Z,19.50
2017-12-11T04:42:13.347Z,19.43
2017-12-11T04:44:39.124Z,19.39
2017-12-11T04:47:04.956Z,19.45
2017-12-11T04:49:30.736Z,19.46
2017-12-11T04:51:56.511Z,19.54
2017-12-11T04:54:22.456Z,19.47
2017-12-11T04:56:48.273Z,19.55
2017-12-11T04:59:14.067Z,19.67
2017-12-11T05:01:39.887Z,19.63
2017-12-11T05:04:05.664Z,19.48
2017-12-11T05:06:31.472Z,19.69
2017-12-11T05:08:57.248Z,19.64
2017-12-11T05:11:23.048Z,19.55
2017-12-11T05:13:48.869Z,19.68
2017-12-11T05:16:14.648Z,19.61
2017-12-11T05:18:40.456Z,19.52
2017-12-11T05:21:06.240Z,19.55
2017-12-11T05:23:32.065Z,19.49
2017-12-11T05:25:57.867Z,19.47
2017-12-11T05:28:23.652Z,19.55
2017-12-11T05:30:49.429Z,19.68
2017-12-11T05:33:15.351Z,19.68
2017-12-11T05:35:41.136Z,19.70
2017-12-11T05:38:06.923Z,19.47
2017-12-11T05:40:32.749Z,19.54
2017-12-11T05:42:58.593Z,19.68
2017-12-11T05:45:24.379Z,19.59
2017-12-11T05:47:50.321Z,19.50
2017-12-11T05:50:17.868Z,19.54
2017-12-11T05:52:43.784Z,19.48
2017-12-11T05:55:09.583Z,19.44
2017-12-11T05:57:35.487Z,19.41
2017-12-11T06:00:01.403Z,19.43
2017-12-11T06:02:27.321Z,19.54
2017-12-11T06:04:53.123Z,19.60
2017-12-11T06:07:19.735Z,19.62
2017-12-11T06:09:45.695Z,19.61
2017-12-11T06:12:11.643Z,19.57
2017-12-11T06:14:37.487Z,19.43
2017-12-11T06:17:03.402Z,19.44
2017-12-11T06:19:29.207Z,19.44
2017-12-11T06:21:55.113Z,19.52
2017-12-11T06:24:21.060Z,19.69
2017-12-11T06:26:46.853Z,19.60
2017-12-11T06:29:12.637Z,19.49
2017-12-11T06:31:39.105Z,19.43
2017-12-11T06:34:04.891Z,19.47
2017-12-11T06:36:30.884Z,19.52
2017-12-11T06:38:56.808Z,19.58
2017-12-11T06:41:22.627Z,19.61
2017-12-11T06:43:48.421Z,19.43
2017-12-11T06:46:14.212Z,19.45
2017-12-11T06:48:40.000Z,19.44
2017-12-11T06:51:05.792Z,19.47
2017-12-11T06:53:31.581Z,19.55
2017-12-11T06:55:57.365Z,19.59
2017-12-11T06:58:23.320Z,19.46
2017-12-11T07:00:49.139Z,19.44
2017-12-11T07:03:14.925Z,19.49
2017-12-11T07:05:40.704Z,19.44
2017-12-11T07:08:06.503Z,19.49
2017-12-11T07:10:32.312Z,19.41
2017-12-11T07:12:58.091Z,19.31
2017-12-11T07:15:23.921Z,19.38
2017-12-11T07:17:49.727Z,19.38
2017-12-11T07:20:15.525Z,19.37
2017-12-11T07:22:41.307Z,19.31
2017-12-11T07:25:07.091Z,19.36
2017-12-11T07:27:32.876Z,19.40
2017-12-11T07:29:58.673Z,19.44
2017-12-11T07:32:24.487Z,19.53
2017-12-11T07:34:50.352Z,19.48
2017-12-11T07:37:16.153Z,19.56
2017-12-11T07:39:41.960Z,19.28
2017-12-11T07:42:07.748Z,19.36
2017-12-11T07:44:33.740Z,19.47
2017-12-11T07:46:59.527Z,19.50
2017-12-11T07:49:25.309Z,19.46
2017-12-11T07:51:51.128Z,19.43
2017-12-11T07:54:16.914Z,19.38
2017-12-11T07:56:42.735Z,19.35
2017-12-11T07:59:08.525Z,19.41
2017-12-11T08:01:34.315Z,19.37
2017-12-11T08:04:00.104Z,19.40
2017-12-11T08:06:25.922Z,19.51
2017-12-11T08:08:51.704Z,19.33
2017-12-11T08:11:17.542Z,19.37
2017-12-11T08:13:43.391Z,19.30
2017-12-11T08:16:09.189Z,19.34
2017-12-11T08:18:34.974Z,19.38
2017-12-11T08:21:00.752Z,19.44
2017-12-11T08:23:26.543Z,19.29
2017-12-11T08:25:52.371Z,19.30
2017-12-11T08:28:18.167Z,19.28
2017-12-11T08:30:44.073Z,19.30
2017-12-11T08:33:09.995Z,19.35
2017-12-11T08:35:35.822Z,19.38
2017-12-11T08:38:01.641Z,19.33
2017-12-11T08:40:27.459Z,19.26
2017-12-11T08:42:53.376Z,19.30
2017-12-11T08:45:19.168Z,19.33
2017-12-11T08:47:45.124Z,19.34
2017-12-11T08:50:11.081Z,19.53
2017-12-11T08:52:36.958Z,19.32
2017-12-11T08:55:02.876Z,19.26
2017-12-11T08:57:28.661Z,19.31
2017-12-11T08:59:54.618Z,19.49
2017-12-11T09:02:20.817Z,19.56
2017-12-11T09:04:46.627Z,19.49
2017-12-11T09:07:12.427Z,19.43
2017-12-11T09:09:39.072Z,19.27
2017-12-11T09:12:04.852Z,19.27
2017-12-11T09:14:30.640Z,19.34
2017-12-11T09:16:56.419Z,19.36
2017-12-11T09:19:22.201Z,19.54
2017-12-11T09:21:47.980Z,19.46
2017-12-11T09:24:13.840Z,19.28
2017-12-11T09:26:39.624Z,19.36
2017-12-11T09:29:05.444Z,19.36
2017-12-11T09:31:31.232Z,19.37
2017-12-11T09:33:57.015Z,19.56
2017-12-11T09:36:22.824Z,19.50
2017-12-11T09:38:48.616Z,19.37
2017-12-11T09:41:14.409Z,19.30
2017-12-11T09:43:40.189Z,19.36
2017-12-11T09:46:06.119Z,19.38
2017-12-11T09:48:31.909Z,19.56
2017-12-11T09:50:57.728Z,19.54
2017-12-11T09:53:25.744Z,19.34
2017-12-11T09:55:51.567Z,19.31
2017-12-11T09:58:17.397Z,19.28
2017-12-11T10:00:43.212Z,19.30
2017-12-11T10:03:09.032Z,19.31
2017-12-11T10:05:34.832Z,19.55
2017-12-11T10:08:00.754Z,19.42
2017-12-11T10:10:28.301Z,19.46
2017-12-11T10:12:54.082Z,19.49
2017-12-11T10:15:19.907Z,19.35
2017-12-11T10:17:45.812Z,19.38
2017-12-11T10:20:11.744Z,19.19
2017-12-11T10:22:37.551Z,19.22
2017-12-11T10:25:03.360Z,19.43
2017-12-11T10:27:29.155Z,19.59
2017-12-11T10:29:54.969Z,19.64
2017-12-11T10:32:20.747Z,19.57
2017-12-11T10:34:46.524Z,19.53
2017-12-11T10:37:12.304Z,19.48
2017-12-11T10:39:38.088Z,19.54
2017-12-11T10:42:03.865Z,19.65
2017-12-11T10:44:29.728Z,19.52
2017-12-11T10:46:55.513Z,19.58
2017-12-11T10:49:21.319Z,19.49
2017-12-11T10:51:47.132Z,19.54
2017-12-11T10:54:12.956Z,19.63
2017-12-11T10:56:38.744Z,19.66
2017-12-11T10:59:04.544Z,19.69
2017-12-11T11:01:30.319Z,19.62
2017-12-11T11:03:56.198Z,19.51
2017-12-11T11:06:22.000Z,19.57
2017-12-11T11:08:47.786Z,19.46
2017-12-11T11:11:13.579Z,19.53
2017-12-11T11:13:40.292Z,19.58
2017-12-11T11:16:09.191Z,19.55
2017-12-11T11:18:35.204Z,19.29
2017-12-11T11:21:01.100Z,19.06
2017-12-11T11:23:26.937Z,19.10
2017-12-11T11:25:52.745Z,19.28
2017-12-11T11:28:18.581Z,19.48
2017-12-11T11:30:46.921Z,19.45
2017-12-11T11:33:14.125Z,19.32
2017-12-11T11:35:42.763Z,19.26
2017-12-11T11:38:12.129Z,19.42
2017-12-11T11:40:44.620Z,19.47
2017-12-11T11:43:37.969Z,19.40
2017-12-11T11:46:11.311Z,19.25
2017-12-11T11:48:43.406Z,19.32
2017-12-11T11:51:15.713Z,19.38
2017-12-11T11:53:46.400Z,19.56
2017-12-11T11:56:14.516Z,19.46
2017-12-11T11:58:40.317Z,19.39
2017-12-11T12:01:06.888Z,19.37
2017-12-11T12:03:33.639Z,19.43
2017-12-11T12:05:59.488Z,19.43
2017-12-11T12:08:26.407Z,19.55
2017-12-11T12:10:53.010Z,19.56
2017-12-11T12:13:19.080Z,19.62
2017-12-11T12:15:44.920Z,19.54
2017-12-11T12:18:10.708Z,19.85
2017-12-11T12:20:36.691Z,19.92
2017-12-11T12:23:02.495Z,19.85
2017-12-11T12:25:29.112Z,19.96
2017-12-11T12:27:54.892Z,19.93
2017-12-11T12:30:20.700Z,19.84
2017-12-11T12:32:46.491Z,19.66
2017-12-11T12:35:15.164Z,19.71
2017-12-11T12:37:42.002Z,19.79
2017-12-11T12:40:07.792Z,19.78
2017-12-11T12:42:33.722Z,19.82
2017-12-11T12:45:01.461Z,19.92
2017-12-11T12:47:29.872Z,19.73
2017-12-11T12:49:55.754Z,19.62
2017-12-11T12:52:22.779Z,19.68
2017-12-11T12:54:48.617Z,19.73
2017-12-11T12:57:14.413Z,19.74
2017-12-11T12:59:40.195Z,19.85
2017-12-11T13:02:05.972Z,19.78
2017-12-11T13:04:31.748Z,19.60
2017-12-11T13:06:57.539Z,19.59
2017-12-11T13:09:24.018Z,19.59
2017-12-11T13:11:49.889Z,19.69
2017-12-11T13:14:15.777Z,19.68
2017-12-11T13:16:41.836Z,19.70
2017-12-11T13:19:08.002Z,19.64
2017-12-11T13:21:34.981Z,19.54
2017-12-11T13:24:24.987Z,19.56
2017-12-11T13:27:01.235Z,19.55
2017-12-11T13:29:29.273Z,19.68
2017-12-11T13:31:56.287Z,19.57
2017-12-11T13:34:25.564Z,19.53
2017-12-11T13:36:53.548Z,19.67
2017-12-11T13:39:20.168Z,19.69
2017-12-11T13:41:47.600Z,19.63
2017-12-11T13:44:13.390Z,19.53
2017-12-11T13:46:43.083Z,19.50
2017-12-11T13:49:12.873Z,19.61
2017-12-11T13:51:39.383Z,19.56
2017-12-11T13:54:06.378Z,19.58
2017-12-11T13:56:32.706Z,19.58
2017-12-11T13:58:59.207Z,19.54
2017-12-11T14:01:25.669Z,19.54
2017-12-11T14:04:12.832Z,19.70
2017-12-11T14:06:42.953Z,19.59
2017-12-11T14:09:13.275Z,19.60
2017-12-11T14:11:43.368Z,19.50
2017-12-11T14:14:14.406Z,19.43
2017-12-11T14:16:43.365Z,19.56
2017-12-11T14:19:11.393Z,19.62
2017-12-11T14:21:37.241Z,19.70
2017-12-11T14:24:03.189Z,19.63
2017-12-11T14:26:28.994Z,19.62
2017-12-11T14:28:54.892Z,19.58
2017-12-11T14:31:20.889Z,19.67
2017-12-11T14:33:46.745Z,19.62
2017-12-11T14:36:12.700Z,19.71
2017-12-11T14:38:38.552Z,19.71
2017-12-11T14:41:04.332Z,19.61
2017-12-11T14:43:30.181Z,19.60
2017-12-11T14:45:56.026Z,19.44
2017-12-11T14:48:21.808Z,19.55
2017-12-11T14:50:47.630Z,19.57
2017-12-11T14:53:13.417Z,19.62
2017-12-11T14:55:39.203Z,19.52
2017-12-11T14:58:04.991Z,19.50
2017-12-11T15:00:30.801Z,19.35
2017-12-11T15:02:56.633Z,19.42
2017-12-11T15:05:22.460Z,19.51
2017-12-11T15:07:48.247Z,19.68
2017-12-11T15:10:14.042Z,19.66
2017-12-11T15:12:39.838Z,19.64
2017-12-11T15:15:05.622Z,19.65
2017-12-11T15:17:31.401Z,19.57
2017-12-11T15:19:57.395Z,19.62
2017-12-11T15:22:23.201Z,19.64
2017-12-11T15:24:48.990Z,19.68
2017-12-11T15:27:14.832Z,19.75
2017-12-11T15:29:40.619Z,19.69
2017-12-11T15:32:06.446Z,19.54
2017-12-11T15:34:32.292Z,19.68
2017-12-11T15:36:58.088Z,19.95
2017-12-11T15:39:23.892Z,19.81
2017-12-11T15:41:49.737Z,19.70
2017-12-11T15:44:15.533Z,19.73
2017-12-11T15:46:41.329Z,19.64
2017-12-11T15:49:07.126Z,19.63
2017-12-11T15:51:32.954Z,19.66
2017-12-11T15:53:58.895Z,19.73
2017-12-11T15:56:24.685Z,19.76
2017-12-11T15:58:50.553Z,19.74
2017-12-11T16:01:16.366Z,19.59
2017-12-11T16:03:42.207Z,19.59
2017-12-11T16:06:08.004Z,19.68
2017-12-11T16:08:33.791Z,19.72
2017-12-11T16:10:59.590Z,19.74
2017-12-11T16:13:25.402Z,19.74
2017-12-11T16:15:51.215Z,19.59
2017-12-11T16:18:17.028Z,19.61
2017-12-11T16:20:42.868Z,19.65
2017-12-11T16:23:08.696Z,19.69
2017-12-11T16:25:34.489Z,19.73
2017-12-11T16:28:00.320Z,19.76
2017-12-11T16:30:26.169Z,19.63
2017-12-11T16:32:52.024Z,19.58
2017-12-11T16:35:17.810Z,19.57
2017-12-11T16:37:43.735Z,19.67
2017-12-11T16:40:09.528Z,19.66
2017-12-11T16:42:35.316Z,19.69
2017-12-11T16:45:01.098Z,19.68
2017-12-11T16:47:26.891Z,19.60
2017-12-11T16:49:52.673Z,19.67
2017-12-11T16:52:18.476Z,19.59
2017-12-11T16:54:44.273Z,19.58
2017-12-11T16:57:10.095Z,19.60
2017-12-11T16:59:35.896Z,19.59
2017-12-11T17:02:01.744Z,19.73
2017-12-11T17:04:27.537Z,19.77
2017-12-11T17:06:53.324Z,19.75
2017-12-11T17:11:52.936Z,19.68
2017-12-11T17:14:18.724Z,19.61
2017-12-11T17:16:45.497Z,19.65
2017-12-11T17:19:11.361Z,19.72
2017-12-11T17:21:37.168Z,19.80
2017-12-11T17:24:02.955Z,19.72
2017-12-11T17:26:28.921Z,19.75
2017-12-11T17:28:54.713Z,19.66
2017-12-11T17:31:20.705Z,19.64
2017-12-11T17:33:46.495Z,19.66
2017-12-11T17:36:13.498Z,19.67
2017-12-11T17:38:39.289Z,19.67
2017-12-11T17:41:05.077Z,19.76
2017-12-11T17:43:30.871Z,19.62
2017-12-11T17:45:56.699Z,19.67
2017-12-11T17:48:22.485Z,19.63
2017-12-11T17:50:48.259Z,19.68
2017-12-11T17:53:14.234Z,19.74
2017-12-11T17:55:40.011Z,19.74
2017-12-11T17:58:05.799Z,19.72
2017-12-11T18:00:31.585Z,19.69
2017-12-11T18:02:57.366Z,19.63
2017-12-11T18:05:23.151Z,19.79
2017-12-11T18:07:48.937Z,19.76
2017-12-11T18:10:14.725Z,19.80
2017-12-11T18:12:40.501Z,19.72
2017-12-11T18:15:06.291Z,19.60
2017-12-11T18:17:32.080Z,19.70
2017-12-11T18:19:57.905Z,19.70
2017-12-11T18:22:23.692Z,19.74
2017-12-11T18:24:49.498Z,19.71
2017-12-11T18:27:15.288Z,19.70
2017-12-11T18:29:41.065Z,19.63
2017-12-11T18:32:06.849Z,19.58
2017-12-11T18:34:32.705Z,19.67
2017-12-11T18:36:58.500Z,19.61
2017-12-11T18:39:24.287Z,19.62
2017-12-11T18:41:50.078Z,19.68
2017-12-11T18:44:15.899Z,19.69
2017-12-11T18:46:42.049Z,19.75
2017-12-11T18:49:08.000Z,19.81
2017-12-11T18:51:35.553Z,19.74
2017-12-11T18:54:01.826Z,19.84
2017-12-11T18:56:27.842Z,19.76
2017-12-11T18:58:53.692Z,19.73
2017-12-11T19:01:22.493Z,19.69
2017-12-11T19:03:48.390Z,19.82
2017-12-11T19:06:14.276Z,19.89
2017-12-11T19:08:40.119Z,19.71
2017-12-11T19:11:05.958Z,19.66
2017-12-11T19:13:33.126Z,19.68
2017-12-11T19:15:58.925Z,19.76
2017-12-11T19:18:24.821Z,19.73
2017-12-11T19:20:50.698Z,19.78
2017-12-11T19:23:16.512Z,19.71
2017-12-11T19:25:42.941Z,19.72
2017-12-11T19:28:08.760Z,19.74
2017-12-11T19:30:34.577Z,19.82
2017-12-11T19:33:01.889Z,19.84
2017-12-11T19:35:27.724Z,19.79
2017-12-11T19:37:53.536Z,19.76
2017-12-11T19:40:19.448Z,19.78
2017-12-11T19:42:45.311Z,19.82
2017-12-11T19:45:11.131Z,19.78
2017-12-11T19:47:36.966Z,19.73
2017-12-11T19:50:02.848Z,19.82
2017-12-11T19:52:28.826Z,19.77
2017-12-11T19:54:54.715Z,19.76
2017-12-11T19:57:20.645Z,19.77
2017-12-11T19:59:46.641Z,19.76
2017-12-11T20:02:12.564Z,19.78
2017-12-11T20:04:38.405Z,19.86
2017-12-11T20:07:05.501Z,19.79
2017-12-11T20:09:32.178Z,19.69
2017-12-11T20:11:58.014Z,19.79
2017-12-11T20:14:23.809Z,19.80
2017-12-11T20:16:50.916Z,19.85
2017-12-11T20:19:16.944Z,19.73
2017-12-11T20:21:42.971Z,19.74
2017-12-11T20:24:08.776Z,19.76
2017-12-11T20:26:34.908Z,19.79
2017-12-11T20:29:00.693Z,19.90
2017-12-11T20:31:26.482Z,19.82
2017-12-11T20:33:53.330Z,19.95
2017-12-11T20:36:19.142Z,20.00
2017-12-11T20:38:46.131Z,19.96
2017-12-11T20:41:11.956Z,19.81
2017-12-11T20:43:38.292Z,19.93
2017-12-11T20:46:04.265Z,19.93
2017-12-11T20:48:30.258Z,19.90
2017-12-11T20:50:56.206Z,19.94
2017-12-11T20:53:22.120Z,19.98
2017-12-11T20:55:52.107Z,19.95
2017-12-11T20:58:19.237Z,19.86
2017-12-11T21:00:45.042Z,19.83
2017-12-11T21:03:12.239Z,19.85
2017-12-11T21:05:38.043Z,20.00
2017-12-11T21:08:03.817Z,20.01
2017-12-11T21:10:31.036Z,19.94
2017-12-11T21:12:56.898Z,19.92
2017-12-11T21:15:24.440Z,19.86
2017-12-11T21:17:50.232Z,19.86
2017-12-11T21:20:21.560Z,19.86
2017-12-11T21:22:48.774Z,19.82
2017-12-11T21:25:14.580Z,19.93
2017-12-11T21:27:40.800Z,19.93
2017-12-11T21:30:06.829Z,19.92
2017-12-11T21:32:32.623Z,19.84
2017-12-11T21:34:58.512Z,19.87
2017-12-11T21:37:24.941Z,19.86
2017-12-11T21:39:50.731Z,19.86
2017-12-11T21:42:18.233Z,19.91
2017-12-11T21:44:44.060Z,19.91
2017-12-11T21:47:09.836Z,19.88
2017-12-11T21:49:36.132Z,19.81
2017-12-11T21:52:01.917Z,19.90
2017-12-11T21:54:27.718Z,19.91
2017-12-11T21:56:54.977Z,19.91
2017-12-11T21:59:20.824Z,19.95
2017-12-11T22:01:46.727Z,19.92
2017-12-11T22:04:13.672Z,19.87
2017-12-11T22:06:39.485Z,19.81
2017-12-11T22:09:07.237Z,19.87
2017-12-11T22:11:33.044Z,19.88
2017-12-11T22:13:59.089Z,19.90
2017-12-11T22:16:25.021Z,19.87
2017-12-11T22:18:50.954Z,19.81
2017-12-11T22:21:16.813Z,19.80
2017-12-11T22:23:42.611Z,19.80
2017-12-11T22:26:08.539Z,19.79
2017-12-11T22:28:34.322Z,19.77
2017-12-11T22:31:00.157Z,19.79
2017-12-11T22:33:26.215Z,19.87
2017-12-11T22:35:52.068Z,19.89
2017-12-11T22:38:17.849Z,19.98
2017-12-11T22:40:43.729Z,19.94
2017-12-11T22:43:09.679Z,19.86
2017-12-11T22:45:35.508Z,19.88
2017-12-11T22:48:01.756Z,19.87
2017-12-11T22:50:27.684Z,19.88
2017-12-11T22:52:53.493Z,19.96
2017-12-11T22:55:19.297Z,19.95
2017-12-11T22:57:45.110Z,19.96
2017-12-11T23:00:10.930Z,19.98
2017-12-11T23:02:36.741Z,19.88
2017-12-11T23:05:02.527Z,19.86
2017-12-11T23:07:28.376Z,19.85
2017-12-11T23:09:54.157Z,19.95
2017-12-11T23:12:19.932Z,19.91
2017-12-11T23:14:45.719Z,19.94
2017-12-11T23:17:11.513Z,19.86
2017-12-11T23:19:37.350Z,19.85
2017-12-11T23:22:03.132Z,19.88
2017-12-11T23:24:28.947Z,19.91
2017-12-11T23:26:54.720Z,19.88
2017-12-11T23:29:20.512Z,19.94
2017-12-11T23:31:46.291Z,19.88
2017-12-11T23:34:12.107Z,19.84
2017-12-11T23:36:37.896Z,19.80
2017-12-11T23:39:03.724Z,19.87
2017-12-11T23:41:29.512Z,19.92
2017-12-11T23:43:55.329Z,19.87
2017-12-11T23:46:21.144Z,19.96
2017-12-11T23:48:46.920Z,19.80
2017-12-11T23:51:12.727Z,19.80
2017-12-11T23:53:38.520Z,19.90
2017-12-11T23:56:04.341Z,19.93
2017-12-11T23:58:30.132Z,19.89
